sensor_id;sensor_type;location;lat;lon;timestamp;P1;durP1;ratioP1;P2;durP2;ratioP2
21206;SDS011;10761;48.532;8.026;2022-07-06T00:01:35;1.98;;;1.45;;
21206;SDS011;10761;48.532;8.026;2022-07-06T00:04:01;4.18;;;1.30;;
21206;SDS011;10761;48.532;8.026;2022-07-06T00:06:27;3.60;;;1.42;;
21206;SDS011;10761;48.532;8.026;2022-07-06T00:08:53;3.33;;;1.30;;
21206;SDS011;10761;48.532;8.026;2022-07-06T00:11:19;2.00;;;1.33;;
21206;SDS011;10761;48.532;8.026;2022-07-06T00:13:45;4.63;;;1.40;;
21206;SDS011;10761;48.532;8.026;2022-07-06T00:16:10;7.25;;;1.42;;
21206;SDS011;10761;48.532;8.026;2022-07-06T00:18:36;7.07;;;1.60;;
21206;SDS011;10761;48.532;8.026;2022-07-06T00:21:02;3.35;;;1.45;;
21206;SDS011;10761;48.532;8.026;2022-07-06T00:23:27;4.80;;;1.17;;
21206;SDS011;10761;48.532;8.026;2022-07-06T00:25:53;1.88;;;1.23;;
21206;SDS011;10761;48.532;8.026;2022-07-06T00:28:19;5.07;;;1.83;;
21206;SDS011;10761;48.532;8.026;2022-07-06T00:30:44;2.90;;;1.55;;
21206;SDS011;10761;48.532;8.026;2022-07-06T00:33:10;2.35;;;1.55;;
21206;SDS011;10761;48.532;8.026;2022-07-06T00:35:35;2.53;;;1.50;;
21206;SDS011;10761;48.532;8.026;2022-07-06T00:38:01;1.80;;;1.38;;
21206;SDS011;10761;48.532;8.026;2022-07-06T00:40:27;2.53;;;1.60;;
21206;SDS011;10761;48.532;8.026;2022-07-06T00:42:54;4.40;;;1.73;;
21206;SDS011;10761;48.532;8.026;2022-07-06T00:45:20;3.42;;;1.70;;
21206;SDS011;10761;48.532;8.026;2022-07-06T00:47:46;2.30;;;1.50;;
21206;SDS011;10761;48.532;8.026;2022-07-06T00:50:14;2.58;;;1.30;;
21206;SDS011;10761;48.532;8.026;2022-07-06T00:52:55;6.07;;;1.63;;
21206;SDS011;10761;48.532;8.026;2022-07-06T00:55:26;1.50;;;1.40;;
21206;SDS011;10761;48.532;8.026;2022-07-06T00:57:54;2.53;;;1.80;;
21206;SDS011;10761;48.532;8.026;2022-07-06T01:00:22;2.42;;;1.50;;
21206;SDS011;10761;48.532;8.026;2022-07-06T01:02:48;4.20;;;1.77;;
21206;SDS011;10761;48.532;8.026;2022-07-06T01:05:15;2.67;;;1.80;;
21206;SDS011;10761;48.532;8.026;2022-07-06T01:07:42;2.25;;;1.65;;
21206;SDS011;10761;48.532;8.026;2022-07-06T01:10:09;2.28;;;1.52;;
21206;SDS011;10761;48.532;8.026;2022-07-06T01:12:36;6.35;;;1.92;;
21206;SDS011;10761;48.532;8.026;2022-07-06T01:15:04;2.13;;;1.70;;
21206;SDS011;10761;48.532;8.026;2022-07-06T01:17:34;3.50;;;1.77;;
21206;SDS011;10761;48.532;8.026;2022-07-06T01:20:23;2.47;;;1.70;;
21206;SDS011;10761;48.532;8.026;2022-07-06T01:22:50;3.47;;;1.92;;
21206;SDS011;10761;48.532;8.026;2022-07-06T01:25:18;4.35;;;1.88;;
21206;SDS011;10761;48.532;8.026;2022-07-06T01:27:44;4.97;;;2.08;;
21206;SDS011;10761;48.532;8.026;2022-07-06T01:30:11;2.22;;;1.80;;
21206;SDS011;10761;48.532;8.026;2022-07-06T01:32:38;4.88;;;2.00;;
21206;SDS011;10761;48.532;8.026;2022-07-06T01:35:05;3.10;;;1.88;;
21206;SDS011;10761;48.532;8.026;2022-07-06T01:37:31;5.43;;;2.08;;
21206;SDS011;10761;48.532;8.026;2022-07-06T01:39:57;2.20;;;2.00;;
21206;SDS011;10761;48.532;8.026;2022-07-06T01:42:24;3.38;;;1.70;;
21206;SDS011;10761;48.532;8.026;2022-07-06T01:44:50;4.07;;;2.10;;
21206;SDS011;10761;48.532;8.026;2022-07-06T01:47:16;6.00;;;1.88;;
21206;SDS011;10761;48.532;8.026;2022-07-06T01:49:41;3.47;;;2.28;;
21206;SDS011;10761;48.532;8.026;2022-07-06T01:52:07;4.43;;;1.98;;
21206;SDS011;10761;48.532;8.026;2022-07-06T01:54:33;3.40;;;1.88;;
21206;SDS011;10761;48.532;8.026;2022-07-06T01:56:58;4.30;;;1.98;;
21206;SDS011;10761;48.532;8.026;2022-07-06T01:59:24;4.40;;;1.98;;
21206;SDS011;10761;48.532;8.026;2022-07-06T02:01:49;3.70;;;2.20;;
21206;SDS011;10761;48.532;8.026;2022-07-06T02:04:15;5.70;;;2.20;;
21206;SDS011;10761;48.532;8.026;2022-07-06T02:06:41;3.83;;;2.40;;
21206;SDS011;10761;48.532;8.026;2022-07-06T02:09:06;3.28;;;2.00;;
21206;SDS011;10761;48.532;8.026;2022-07-06T02:11:32;4.40;;;2.30;;
21206;SDS011;10761;48.532;8.026;2022-07-06T02:13:58;2.95;;;2.30;;
21206;SDS011;10761;48.532;8.026;2022-07-06T02:16:24;2.88;;;2.55;;
21206;SDS011;10761;48.532;8.026;2022-07-06T02:18:49;4.95;;;2.30;;
21206;SDS011;10761;48.532;8.026;2022-07-06T02:21:15;4.72;;;2.60;;
21206;SDS011;10761;48.532;8.026;2022-07-06T02:23:41;2.50;;;2.30;;
21206;SDS011;10761;48.532;8.026;2022-07-06T02:26:07;6.22;;;2.45;;
21206;SDS011;10761;48.532;8.026;2022-07-06T02:28:32;4.85;;;2.20;;
21206;SDS011;10761;48.532;8.026;2022-07-06T02:30:58;5.18;;;2.53;;
21206;SDS011;10761;48.532;8.026;2022-07-06T02:33:24;6.18;;;2.30;;
21206;SDS011;10761;48.532;8.026;2022-07-06T02:35:49;6.50;;;2.50;;
21206;SDS011;10761;48.532;8.026;2022-07-06T02:38:15;5.25;;;2.45;;
21206;SDS011;10761;48.532;8.026;2022-07-06T02:40:41;5.00;;;2.47;;
21206;SDS011;10761;48.532;8.026;2022-07-06T02:43:06;5.88;;;2.55;;
21206;SDS011;10761;48.532;8.026;2022-07-06T02:45:32;5.10;;;2.42;;
21206;SDS011;10761;48.532;8.026;2022-07-06T02:47:58;4.18;;;2.70;;
21206;SDS011;10761;48.532;8.026;2022-07-06T02:50:24;5.18;;;2.40;;
21206;SDS011;10761;48.532;8.026;2022-07-06T02:52:49;3.63;;;3.17;;
21206;SDS011;10761;48.532;8.026;2022-07-06T02:55:16;9.65;;;2.78;;
21206;SDS011;10761;48.532;8.026;2022-07-06T02:57:42;3.72;;;2.53;;
21206;SDS011;10761;48.532;8.026;2022-07-06T03:00:08;6.25;;;2.55;;
21206;SDS011;10761;48.532;8.026;2022-07-06T03:02:35;5.30;;;2.55;;
21206;SDS011;10761;48.532;8.026;2022-07-06T03:05:01;5.43;;;2.38;;
21206;SDS011;10761;48.532;8.026;2022-07-06T03:07:27;3.78;;;2.60;;
21206;SDS011;10761;48.532;8.026;2022-07-06T03:09:53;2.95;;;2.35;;
21206;SDS011;10761;48.532;8.026;2022-07-06T03:12:18;5.10;;;2.58;;
21206;SDS011;10761;48.532;8.026;2022-07-06T03:14:44;4.88;;;2.65;;
21206;SDS011;10761;48.532;8.026;2022-07-06T03:17:10;5.18;;;2.80;;
21206;SDS011;10761;48.532;8.026;2022-07-06T03:19:35;4.28;;;2.92;;
21206;SDS011;10761;48.532;8.026;2022-07-06T03:22:01;2.85;;;2.60;;
21206;SDS011;10761;48.532;8.026;2022-07-06T03:24:27;10.20;;;2.88;;
21206;SDS011;10761;48.532;8.026;2022-07-06T03:26:53;3.13;;;2.50;;
21206;SDS011;10761;48.532;8.026;2022-07-06T03:29:18;4.18;;;2.60;;
21206;SDS011;10761;48.532;8.026;2022-07-06T03:31:45;6.95;;;4.15;;
21206;SDS011;10761;48.532;8.026;2022-07-06T03:34:11;4.63;;;3.10;;
21206;SDS011;10761;48.532;8.026;2022-07-06T03:36:37;5.07;;;2.95;;
21206;SDS011;10761;48.532;8.026;2022-07-06T03:39:03;8.82;;;2.90;;
21206;SDS011;10761;48.532;8.026;2022-07-06T03:41:29;3.67;;;2.40;;
21206;SDS011;10761;48.532;8.026;2022-07-06T03:43:55;5.05;;;2.70;;
21206;SDS011;10761;48.532;8.026;2022-07-06T03:46:21;3.70;;;2.67;;
21206;SDS011;10761;48.532;8.026;2022-07-06T03:48:46;6.03;;;3.38;;
21206;SDS011;10761;48.532;8.026;2022-07-06T03:51:12;5.22;;;3.10;;
21206;SDS011;10761;48.532;8.026;2022-07-06T03:53:38;3.33;;;3.03;;
21206;SDS011;10761;48.532;8.026;2022-07-06T03:56:03;4.93;;;2.60;;
21206;SDS011;10761;48.532;8.026;2022-07-06T03:58:47;3.83;;;2.92;;
21206;SDS011;10761;48.532;8.026;2022-07-06T04:01:13;5.90;;;2.65;;
21206;SDS011;10761;48.532;8.026;2022-07-06T04:03:39;5.85;;;2.92;;
21206;SDS011;10761;48.532;8.026;2022-07-06T04:06:05;5.72;;;3.05;;
21206;SDS011;10761;48.532;8.026;2022-07-06T04:08:31;6.97;;;3.30;;
21206;SDS011;10761;48.532;8.026;2022-07-06T04:10:56;4.22;;;3.60;;
21206;SDS011;10761;48.532;8.026;2022-07-06T04:13:22;8.05;;;3.55;;
21206;SDS011;10761;48.532;8.026;2022-07-06T04:15:48;3.58;;;2.75;;
21206;SDS011;10761;48.532;8.026;2022-07-06T04:18:14;3.80;;;2.45;;
21206;SDS011;10761;48.532;8.026;2022-07-06T04:20:39;5.63;;;2.83;;
21206;SDS011;10761;48.532;8.026;2022-07-06T04:23:05;7.93;;;3.15;;
21206;SDS011;10761;48.532;8.026;2022-07-06T04:25:31;4.43;;;3.20;;
21206;SDS011;10761;48.532;8.026;2022-07-06T04:27:56;5.70;;;2.90;;
21206;SDS011;10761;48.532;8.026;2022-07-06T04:30:22;4.80;;;2.72;;
21206;SDS011;10761;48.532;8.026;2022-07-06T04:32:48;3.90;;;2.80;;
21206;SDS011;10761;48.532;8.026;2022-07-06T04:35:13;8.07;;;2.85;;
21206;SDS011;10761;48.532;8.026;2022-07-06T04:37:39;5.50;;;2.83;;
21206;SDS011;10761;48.532;8.026;2022-07-06T04:40:05;4.78;;;2.70;;
21206;SDS011;10761;48.532;8.026;2022-07-06T04:42:31;4.72;;;2.85;;
21206;SDS011;10761;48.532;8.026;2022-07-06T04:44:56;5.25;;;2.50;;
21206;SDS011;10761;48.532;8.026;2022-07-06T04:47:22;4.80;;;2.78;;
21206;SDS011;10761;48.532;8.026;2022-07-06T04:49:48;7.35;;;2.95;;
21206;SDS011;10761;48.532;8.026;2022-07-06T04:52:13;4.30;;;2.80;;
21206;SDS011;10761;48.532;8.026;2022-07-06T04:54:39;9.23;;;3.00;;
21206;SDS011;10761;48.532;8.026;2022-07-06T04:57:04;6.22;;;3.00;;
21206;SDS011;10761;48.532;8.026;2022-07-06T04:59:30;5.80;;;3.38;;
21206;SDS011;10761;48.532;8.026;2022-07-06T05:01:55;5.32;;;3.05;;
21206;SDS011;10761;48.532;8.026;2022-07-06T05:04:21;9.43;;;2.80;;
21206;SDS011;10761;48.532;8.026;2022-07-06T05:06:48;5.13;;;2.65;;
21206;SDS011;10761;48.532;8.026;2022-07-06T05:09:14;4.47;;;3.05;;
21206;SDS011;10761;48.532;8.026;2022-07-06T05:11:40;5.30;;;2.78;;
21206;SDS011;10761;48.532;8.026;2022-07-06T05:14:05;6.40;;;3.00;;
21206;SDS011;10761;48.532;8.026;2022-07-06T05:16:31;8.00;;;2.70;;
21206;SDS011;10761;48.532;8.026;2022-07-06T05:18:57;6.13;;;2.85;;
21206;SDS011;10761;48.532;8.026;2022-07-06T05:21:23;4.78;;;2.88;;
21206;SDS011;10761;48.532;8.026;2022-07-06T05:23:49;3.65;;;2.78;;
21206;SDS011;10761;48.532;8.026;2022-07-06T05:26:15;4.00;;;2.95;;
21206;SDS011;10761;48.532;8.026;2022-07-06T05:28:41;5.20;;;2.90;;
21206;SDS011;10761;48.532;8.026;2022-07-06T05:31:06;8.55;;;3.00;;
21206;SDS011;10761;48.532;8.026;2022-07-06T05:33:32;4.45;;;3.35;;
21206;SDS011;10761;48.532;8.026;2022-07-06T05:35:57;7.47;;;3.10;;
21206;SDS011;10761;48.532;8.026;2022-07-06T05:38:23;7.13;;;3.35;;
21206;SDS011;10761;48.532;8.026;2022-07-06T05:40:49;5.20;;;3.47;;
21206;SDS011;10761;48.532;8.026;2022-07-06T05:43:14;7.43;;;3.50;;
21206;SDS011;10761;48.532;8.026;2022-07-06T05:45:40;6.28;;;3.20;;
21206;SDS011;10761;48.532;8.026;2022-07-06T05:48:06;6.00;;;3.08;;
21206;SDS011;10761;48.532;8.026;2022-07-06T05:50:50;5.35;;;2.95;;
21206;SDS011;10761;48.532;8.026;2022-07-06T05:53:15;5.68;;;3.50;;
21206;SDS011;10761;48.532;8.026;2022-07-06T05:55:41;7.60;;;3.28;;
21206;SDS011;10761;48.532;8.026;2022-07-06T05:58:07;5.53;;;3.00;;
21206;SDS011;10761;48.532;8.026;2022-07-06T06:00:32;7.82;;;3.03;;
21206;SDS011;10761;48.532;8.026;2022-07-06T06:02:58;4.65;;;3.10;;
21206;SDS011;10761;48.532;8.026;2022-07-06T06:05:25;7.30;;;3.35;;
21206;SDS011;10761;48.532;8.026;2022-07-06T06:07:51;5.22;;;3.00;;
21206;SDS011;10761;48.532;8.026;2022-07-06T06:10:18;7.40;;;3.45;;
21206;SDS011;10761;48.532;8.026;2022-07-06T06:12:46;8.57;;;3.03;;
21206;SDS011;10761;48.532;8.026;2022-07-06T06:15:13;5.65;;;2.97;;
21206;SDS011;10761;48.532;8.026;2022-07-06T06:17:39;6.03;;;2.85;;
21206;SDS011;10761;48.532;8.026;2022-07-06T06:20:05;3.40;;;2.35;;
21206;SDS011;10761;48.532;8.026;2022-07-06T06:25:18;5.60;;;2.40;;
21206;SDS011;10761;48.532;8.026;2022-07-06T06:27:46;4.90;;;2.05;;
21206;SDS011;10761;48.532;8.026;2022-07-06T06:30:12;5.68;;;1.98;;
21206;SDS011;10761;48.532;8.026;2022-07-06T06:32:39;11.32;;;3.22;;
21206;SDS011;10761;48.532;8.026;2022-07-06T06:35:05;5.05;;;1.77;;
21206;SDS011;10761;48.532;8.026;2022-07-06T06:37:31;3.60;;;1.80;;
21206;SDS011;10761;48.532;8.026;2022-07-06T06:39:57;4.68;;;2.25;;
21206;SDS011;10761;48.532;8.026;2022-07-06T06:42:23;3.60;;;2.13;;
21206;SDS011;10761;48.532;8.026;2022-07-06T06:44:48;2.83;;;1.92;;
21206;SDS011;10761;48.532;8.026;2022-07-06T06:47:14;8.82;;;2.42;;
21206;SDS011;10761;48.532;8.026;2022-07-06T06:49:40;3.60;;;2.10;;
21206;SDS011;10761;48.532;8.026;2022-07-06T06:52:05;7.90;;;2.50;;
21206;SDS011;10761;48.532;8.026;2022-07-06T06:54:31;9.55;;;2.33;;
21206;SDS011;10761;48.532;8.026;2022-07-06T06:56:56;6.30;;;2.08;;
21206;SDS011;10761;48.532;8.026;2022-07-06T06:59:22;6.10;;;1.90;;
21206;SDS011;10761;48.532;8.026;2022-07-06T07:01:48;6.07;;;2.40;;
21206;SDS011;10761;48.532;8.026;2022-07-06T07:04:13;2.97;;;2.42;;
21206;SDS011;10761;48.532;8.026;2022-07-06T07:06:39;7.85;;;2.03;;
21206;SDS011;10761;48.532;8.026;2022-07-06T07:09:05;3.35;;;2.13;;
21206;SDS011;10761;48.532;8.026;2022-07-06T07:11:30;9.65;;;2.28;;
21206;SDS011;10761;48.532;8.026;2022-07-06T07:13:56;6.65;;;2.00;;
21206;SDS011;10761;48.532;8.026;2022-07-06T07:16:22;6.18;;;2.00;;
21206;SDS011;10761;48.532;8.026;2022-07-06T07:18:49;6.03;;;2.28;;
21206;SDS011;10761;48.532;8.026;2022-07-06T07:21:15;4.80;;;2.05;;
21206;SDS011;10761;48.532;8.026;2022-07-06T07:23:41;11.07;;;2.55;;
21206;SDS011;10761;48.532;8.026;2022-07-06T07:26:06;4.78;;;2.00;;
21206;SDS011;10761;48.532;8.026;2022-07-06T07:28:32;4.80;;;1.80;;
21206;SDS011;10761;48.532;8.026;2022-07-06T07:30:57;5.28;;;1.70;;
21206;SDS011;10761;48.532;8.026;2022-07-06T07:33:23;5.13;;;2.05;;
21206;SDS011;10761;48.532;8.026;2022-07-06T07:35:49;5.85;;;1.75;;
21206;SDS011;10761;48.532;8.026;2022-07-06T07:38:14;4.32;;;2.03;;
21206;SDS011;10761;48.532;8.026;2022-07-06T07:40:40;5.40;;;2.20;;
21206;SDS011;10761;48.532;8.026;2022-07-06T07:43:05;10.70;;;2.50;;
21206;SDS011;10761;48.532;8.026;2022-07-06T07:45:31;4.60;;;2.10;;
21206;SDS011;10761;48.532;8.026;2022-07-06T07:47:57;7.55;;;2.10;;
21206;SDS011;10761;48.532;8.026;2022-07-06T07:50:22;4.57;;;2.00;;
21206;SDS011;10761;48.532;8.026;2022-07-06T07:52:48;3.75;;;1.75;;
21206;SDS011;10761;48.532;8.026;2022-07-06T07:55:14;3.78;;;1.85;;
21206;SDS011;10761;48.532;8.026;2022-07-06T07:57:40;10.05;;;2.03;;
21206;SDS011;10761;48.532;8.026;2022-07-06T08:00:06;5.47;;;2.13;;
21206;SDS011;10761;48.532;8.026;2022-07-06T08:02:32;8.25;;;2.10;;
21206;SDS011;10761;48.532;8.026;2022-07-06T08:04:58;3.35;;;1.83;;
21206;SDS011;10761;48.532;8.026;2022-07-06T08:07:23;9.73;;;1.80;;
21206;SDS011;10761;48.532;8.026;2022-07-06T08:09:49;5.32;;;2.08;;
21206;SDS011;10761;48.532;8.026;2022-07-06T08:12:15;4.80;;;1.77;;
21206;SDS011;10761;48.532;8.026;2022-07-06T08:14:40;6.25;;;2.10;;
21206;SDS011;10761;48.532;8.026;2022-07-06T08:17:06;7.95;;;1.92;;
21206;SDS011;10761;48.532;8.026;2022-07-06T08:19:31;6.28;;;1.95;;
21206;SDS011;10761;48.532;8.026;2022-07-06T08:21:57;4.45;;;1.70;;
21206;SDS011;10761;48.532;8.026;2022-07-06T08:24:23;7.28;;;2.38;;
21206;SDS011;10761;48.532;8.026;2022-07-06T08:26:48;5.05;;;1.67;;
21206;SDS011;10761;48.532;8.026;2022-07-06T08:29:14;8.60;;;2.22;;
21206;SDS011;10761;48.532;8.026;2022-07-06T08:31:40;3.03;;;1.90;;
21206;SDS011;10761;48.532;8.026;2022-07-06T08:34:05;5.43;;;1.80;;
21206;SDS011;10761;48.532;8.026;2022-07-06T08:36:31;4.82;;;1.98;;
21206;SDS011;10761;48.532;8.026;2022-07-06T08:38:57;4.97;;;1.90;;
21206;SDS011;10761;48.532;8.026;2022-07-06T08:41:24;6.30;;;1.98;;
21206;SDS011;10761;48.532;8.026;2022-07-06T08:43:52;5.60;;;1.73;;
21206;SDS011;10761;48.532;8.026;2022-07-06T08:46:18;4.65;;;1.67;;
21206;SDS011;10761;48.532;8.026;2022-07-06T08:48:49;7.97;;;2.00;;
21206;SDS011;10761;48.532;8.026;2022-07-06T08:51:16;7.05;;;2.10;;
21206;SDS011;10761;48.532;8.026;2022-07-06T08:53:42;6.05;;;1.88;;
21206;SDS011;10761;48.532;8.026;2022-07-06T08:56:10;3.13;;;1.90;;
21206;SDS011;10761;48.532;8.026;2022-07-06T08:58:36;7.07;;;2.00;;
21206;SDS011;10761;48.532;8.026;2022-07-06T09:01:06;4.97;;;2.13;;
21206;SDS011;10761;48.532;8.026;2022-07-06T09:03:33;3.95;;;2.20;;
21206;SDS011;10761;48.532;8.026;2022-07-06T09:06:01;8.45;;;2.00;;
21206;SDS011;10761;48.532;8.026;2022-07-06T09:08:27;5.60;;;2.08;;
21206;SDS011;10761;48.532;8.026;2022-07-06T09:10:56;10.75;;;2.10;;
21206;SDS011;10761;48.532;8.026;2022-07-06T09:13:22;5.72;;;1.90;;
21206;SDS011;10761;48.532;8.026;2022-07-06T09:15:47;2.63;;;1.77;;
21206;SDS011;10761;48.532;8.026;2022-07-06T09:18:13;3.80;;;1.88;;
21206;SDS011;10761;48.532;8.026;2022-07-06T09:20:40;7.28;;;2.28;;
21206;SDS011;10761;48.532;8.026;2022-07-06T09:23:07;12.75;;;2.30;;
21206;SDS011;10761;48.532;8.026;2022-07-06T09:25:33;6.25;;;2.35;;
21206;SDS011;10761;48.532;8.026;2022-07-06T09:28:00;7.78;;;2.28;;
21206;SDS011;10761;48.532;8.026;2022-07-06T09:30:26;6.88;;;2.58;;
21206;SDS011;10761;48.532;8.026;2022-07-06T09:32:54;6.57;;;2.22;;
21206;SDS011;10761;48.532;8.026;2022-07-06T09:35:22;5.70;;;2.20;;
21206;SDS011;10761;48.532;8.026;2022-07-06T09:40:34;9.40;;;2.40;;
21206;SDS011;10761;48.532;8.026;2022-07-06T09:45:38;8.93;;;2.40;;
21206;SDS011;10761;48.532;8.026;2022-07-06T09:48:05;3.35;;;1.90;;
21206;SDS011;10761;48.532;8.026;2022-07-06T09:50:54;7.00;;;2.42;;
21206;SDS011;10761;48.532;8.026;2022-07-06T09:53:23;7.47;;;2.70;;
21206;SDS011;10761;48.532;8.026;2022-07-06T09:55:50;6.68;;;2.25;;
21206;SDS011;10761;48.532;8.026;2022-07-06T09:58:17;5.50;;;2.20;;
21206;SDS011;10761;48.532;8.026;2022-07-06T10:00:44;6.13;;;2.30;;
21206;SDS011;10761;48.532;8.026;2022-07-06T10:03:11;12.52;;;2.50;;
21206;SDS011;10761;48.532;8.026;2022-07-06T10:05:38;6.22;;;2.35;;
21206;SDS011;10761;48.532;8.026;2022-07-06T10:08:09;10.20;;;2.65;;
21206;SDS011;10761;48.532;8.026;2022-07-06T10:10:35;8.10;;;2.22;;
21206;SDS011;10761;48.532;8.026;2022-07-06T10:13:03;4.93;;;2.72;;
21206;SDS011;10761;48.532;8.026;2022-07-06T10:15:32;8.77;;;2.40;;
21206;SDS011;10761;48.532;8.026;2022-07-06T10:17:59;4.43;;;2.33;;
21206;SDS011;10761;48.532;8.026;2022-07-06T10:20:30;6.35;;;1.90;;
21206;SDS011;10761;48.532;8.026;2022-07-06T10:23:01;11.93;;;2.57;;
21206;SDS011;10761;48.532;8.026;2022-07-06T10:25:28;5.80;;;2.50;;
21206;SDS011;10761;48.532;8.026;2022-07-06T10:27:54;5.07;;;2.33;;
21206;SDS011;10761;48.532;8.026;2022-07-06T10:30:20;9.23;;;2.40;;
21206;SDS011;10761;48.532;8.026;2022-07-06T10:32:48;7.90;;;2.25;;
21206;SDS011;10761;48.532;8.026;2022-07-06T10:35:16;7.95;;;2.50;;
21206;SDS011;10761;48.532;8.026;2022-07-06T10:37:45;6.65;;;2.40;;
21206;SDS011;10761;48.532;8.026;2022-07-06T10:40:31;8.85;;;2.20;;
21206;SDS011;10761;48.532;8.026;2022-07-06T10:43:19;4.47;;;2.40;;
21206;SDS011;10761;48.532;8.026;2022-07-06T10:50:52;9.10;;;2.65;;
21206;SDS011;10761;48.532;8.026;2022-07-06T10:53:26;5.60;;;1.90;;
21206;SDS011;10761;48.532;8.026;2022-07-06T10:55:53;3.95;;;1.95;;
21206;SDS011;10761;48.532;8.026;2022-07-06T10:58:36;6.57;;;2.10;;
21206;SDS011;10761;48.532;8.026;2022-07-06T11:01:13;5.25;;;2.08;;
21206;SDS011;10761;48.532;8.026;2022-07-06T11:03:43;4.60;;;1.80;;
21206;SDS011;10761;48.532;8.026;2022-07-06T11:06:10;7.15;;;1.80;;
21206;SDS011;10761;48.532;8.026;2022-07-06T11:08:56;7.40;;;2.30;;
21206;SDS011;10761;48.532;8.026;2022-07-06T11:19:15;6.03;;;1.80;;
21206;SDS011;10761;48.532;8.026;2022-07-06T11:21:49;7.28;;;2.05;;
21206;SDS011;10761;48.532;8.026;2022-07-06T11:24:28;4.15;;;1.92;;
21206;SDS011;10761;48.532;8.026;2022-07-06T11:26:55;5.95;;;2.10;;
21206;SDS011;10761;48.532;8.026;2022-07-06T11:29:22;12.20;;;3.58;;
21206;SDS011;10761;48.532;8.026;2022-07-06T11:31:50;6.57;;;2.20;;
21206;SDS011;10761;48.532;8.026;2022-07-06T11:34:19;19.98;;;4.07;;
21206;SDS011;10761;48.532;8.026;2022-07-06T11:36:46;7.30;;;2.10;;
21206;SDS011;10761;48.532;8.026;2022-07-06T11:39:13;9.75;;;2.50;;
21206;SDS011;10761;48.532;8.026;2022-07-06T11:41:39;5.75;;;2.22;;
21206;SDS011;10761;48.532;8.026;2022-07-06T11:44:05;5.93;;;2.10;;
21206;SDS011;10761;48.532;8.026;2022-07-06T11:46:32;5.22;;;2.00;;
21206;SDS011;10761;48.532;8.026;2022-07-06T11:49:06;8.10;;;1.73;;
21206;SDS011;10761;48.532;8.026;2022-07-06T11:51:34;10.05;;;2.05;;
21206;SDS011;10761;48.532;8.026;2022-07-06T11:54:01;2.92;;;1.38;;
21206;SDS011;10761;48.532;8.026;2022-07-06T11:56:35;7.95;;;1.60;;
21206;SDS011;10761;48.532;8.026;2022-07-06T11:59:01;4.20;;;1.63;;
21206;SDS011;10761;48.532;8.026;2022-07-06T12:01:28;6.30;;;2.00;;
21206;SDS011;10761;48.532;8.026;2022-07-06T12:03:59;4.93;;;1.67;;
21206;SDS011;10761;48.532;8.026;2022-07-06T12:06:28;4.15;;;1.60;;
21206;SDS011;10761;48.532;8.026;2022-07-06T12:08:58;4.80;;;1.67;;
21206;SDS011;10761;48.532;8.026;2022-07-06T12:11:29;6.07;;;1.75;;
21206;SDS011;10761;48.532;8.026;2022-07-06T12:14:00;3.67;;;1.60;;
21206;SDS011;10761;48.532;8.026;2022-07-06T12:16:31;5.43;;;1.55;;
21206;SDS011;10761;48.532;8.026;2022-07-06T12:19:00;3.15;;;1.58;;
21206;SDS011;10761;48.532;8.026;2022-07-06T12:21:27;2.88;;;1.55;;
21206;SDS011;10761;48.532;8.026;2022-07-06T12:23:53;5.95;;;1.70;;
21206;SDS011;10761;48.532;8.026;2022-07-06T12:26:21;4.05;;;1.42;;
21206;SDS011;10761;48.532;8.026;2022-07-06T12:29:04;3.47;;;1.52;;
21206;SDS011;10761;48.532;8.026;2022-07-06T12:31:38;5.82;;;1.75;;
21206;SDS011;10761;48.532;8.026;2022-07-06T12:34:11;4.40;;;1.48;;
21206;SDS011;10761;48.532;8.026;2022-07-06T12:36:49;3.28;;;1.58;;
21206;SDS011;10761;48.532;8.026;2022-07-06T12:39:17;1.85;;;1.30;;
21206;SDS011;10761;48.532;8.026;2022-07-06T12:41:48;3.38;;;1.48;;
21206;SDS011;10761;48.532;8.026;2022-07-06T12:44:25;2.90;;;1.30;;
21206;SDS011;10761;48.532;8.026;2022-07-06T12:47:04;4.65;;;1.30;;
21206;SDS011;10761;48.532;8.026;2022-07-06T12:49:31;4.55;;;1.25;;
21206;SDS011;10761;48.532;8.026;2022-07-06T12:51:59;2.67;;;1.20;;
21206;SDS011;10761;48.532;8.026;2022-07-06T12:57:04;1.77;;;1.10;;
21206;SDS011;10761;48.532;8.026;2022-07-06T12:59:35;6.35;;;1.80;;
21206;SDS011;10761;48.532;8.026;2022-07-06T13:02:03;4.60;;;1.60;;
21206;SDS011;10761;48.532;8.026;2022-07-06T13:04:30;3.80;;;1.50;;
21206;SDS011;10761;48.532;8.026;2022-07-06T13:06:58;4.18;;;1.70;;
21206;SDS011;10761;48.532;8.026;2022-07-06T13:09:24;5.18;;;1.50;;
21206;SDS011;10761;48.532;8.026;2022-07-06T13:11:50;2.97;;;1.50;;
21206;SDS011;10761;48.532;8.026;2022-07-06T13:14:17;14.73;;;2.70;;
21206;SDS011;10761;48.532;8.026;2022-07-06T13:16:43;10.57;;;2.03;;
21206;SDS011;10761;48.532;8.026;2022-07-06T13:19:10;4.15;;;1.30;;
21206;SDS011;10761;48.532;8.026;2022-07-06T13:21:36;2.75;;;1.30;;
21206;SDS011;10761;48.532;8.026;2022-07-06T13:24:02;2.97;;;1.20;;
21206;SDS011;10761;48.532;8.026;2022-07-06T13:26:29;2.72;;;1.15;;
21206;SDS011;10761;48.532;8.026;2022-07-06T13:28:58;5.07;;;1.42;;
21206;SDS011;10761;48.532;8.026;2022-07-06T13:31:28;1.65;;;1.13;;
21206;SDS011;10761;48.532;8.026;2022-07-06T13:33:54;9.30;;;1.50;;
21206;SDS011;10761;48.532;8.026;2022-07-06T13:36:20;3.97;;;1.20;;
21206;SDS011;10761;48.532;8.026;2022-07-06T13:38:45;5.32;;;1.30;;
21206;SDS011;10761;48.532;8.026;2022-07-06T13:41:11;8.13;;;1.40;;
21206;SDS011;10761;48.532;8.026;2022-07-06T13:43:37;4.50;;;1.30;;
21206;SDS011;10761;48.532;8.026;2022-07-06T13:46:03;3.17;;;1.10;;
21206;SDS011;10761;48.532;8.026;2022-07-06T13:48:30;3.10;;;1.20;;
21206;SDS011;10761;48.532;8.026;2022-07-06T13:50:56;3.65;;;1.55;;
21206;SDS011;10761;48.532;8.026;2022-07-06T13:53:22;6.63;;;1.45;;
21206;SDS011;10761;48.532;8.026;2022-07-06T13:55:48;6.05;;;1.60;;
21206;SDS011;10761;48.532;8.026;2022-07-06T13:58:13;3.22;;;1.30;;
21206;SDS011;10761;48.532;8.026;2022-07-06T14:00:39;3.92;;;1.25;;
21206;SDS011;10761;48.532;8.026;2022-07-06T14:03:05;2.85;;;1.20;;
21206;SDS011;10761;48.532;8.026;2022-07-06T14:05:30;5.00;;;1.48;;
21206;SDS011;10761;48.532;8.026;2022-07-06T14:07:56;6.00;;;1.30;;
21206;SDS011;10761;48.532;8.026;2022-07-06T14:10:22;5.78;;;1.90;;
21206;SDS011;10761;48.532;8.026;2022-07-06T14:12:48;7.80;;;1.48;;
21206;SDS011;10761;48.532;8.026;2022-07-06T14:15:14;4.78;;;1.40;;
21206;SDS011;10761;48.532;8.026;2022-07-06T14:17:39;2.13;;;1.10;;
21206;SDS011;10761;48.532;8.026;2022-07-06T14:20:05;2.03;;;1.00;;
21206;SDS011;10761;48.532;8.026;2022-07-06T14:22:31;4.63;;;1.15;;
21206;SDS011;10761;48.532;8.026;2022-07-06T14:24:57;2.00;;;0.98;;
21206;SDS011;10761;48.532;8.026;2022-07-06T14:27:23;4.30;;;1.00;;
21206;SDS011;10761;48.532;8.026;2022-07-06T14:29:49;5.88;;;1.20;;
21206;SDS011;10761;48.532;8.026;2022-07-06T14:32:14;2.70;;;0.98;;
21206;SDS011;10761;48.532;8.026;2022-07-06T14:34:40;2.38;;;1.15;;
21206;SDS011;10761;48.532;8.026;2022-07-06T14:37:06;4.45;;;0.98;;
21206;SDS011;10761;48.532;8.026;2022-07-06T14:39:31;2.65;;;1.00;;
21206;SDS011;10761;48.532;8.026;2022-07-06T14:41:57;3.53;;;0.80;;
21206;SDS011;10761;48.532;8.026;2022-07-06T14:44:22;3.22;;;1.00;;
21206;SDS011;10761;48.532;8.026;2022-07-06T14:46:48;7.05;;;0.98;;
21206;SDS011;10761;48.532;8.026;2022-07-06T14:49:14;2.08;;;0.90;;
21206;SDS011;10761;48.532;8.026;2022-07-06T14:51:39;3.20;;;0.82;;
21206;SDS011;10761;48.532;8.026;2022-07-06T14:54:05;3.03;;;1.10;;
21206;SDS011;10761;48.532;8.026;2022-07-06T14:56:31;2.42;;;0.88;;
21206;SDS011;10761;48.532;8.026;2022-07-06T14:58:56;4.00;;;1.17;;
21206;SDS011;10761;48.532;8.026;2022-07-06T15:01:22;3.65;;;1.00;;
21206;SDS011;10761;48.532;8.026;2022-07-06T15:03:47;5.85;;;1.08;;
21206;SDS011;10761;48.532;8.026;2022-07-06T15:06:13;2.47;;;0.75;;
21206;SDS011;10761;48.532;8.026;2022-07-06T15:08:39;8.18;;;1.00;;
21206;SDS011;10761;48.532;8.026;2022-07-06T15:11:04;3.70;;;0.98;;